John R Operle — WDB8611 — position and weather

sailwx.info

Track history (hours):
 
Tides and Currents Weather Stations Pressure Air Temp Water Temp Dewpoint Dewpoint Depression Visibility Wind Speed Wind Dir Waves Ship Positions

John R Operle

Owner: INGRAM BARGE COMPANY, Nashville, TN. More information available from US FCC via Universal Licensing System and Coast Guard Vessel Documentation Center.

Last reported at 2016-Feb-14 04:26 UTC. Time now 2016-Feb-14 21:02 UTC.
Position N 32°05' W 091°04'.

Length 36 m; draft 3.6 m.

Type: Ship (hazmat cat B). MMSI: 366961510.

Date/timePositionNaut miles runAvg speedWind from/ knotsBaromVisibWave heightAir tempDewpointWater temp
2016-Feb-14 04:26N 32°05' W 091°04'4 4.3
2016-Feb-14 03:33N 32°07' W 091°01'9 9.2
2016-Feb-14 02:33N 32°16' W 090°58'5 5.0
2016-Feb-14 01:33N 32°21' W 090°57'0 0.1
2016-Feb-14 00:33N 32°21' W 090°57'5 4.8
2016-Feb-13 23:33N 32°25' W 090°60'9 7.7
2016-Feb-13 22:26N 32°32' W 091°06'  
2016-Feb-06 14:33N 32°45' W 091°09'5 4.7
2016-Feb-06 13:28N 32°43' W 091°03'4 4.9
2016-Feb-06 12:33N 32°40' W 091°07'4 4.2
2016-Feb-06 11:33N 32°36' W 091°08'5 4.5
2016-Feb-06 10:23N 32°31' W 091°06'4 4.8
2016-Feb-06 09:33N 32°27' W 091°05'5 5.0
2016-Feb-06 08:33N 32°25' W 090°60'4 4.1
2016-Feb-06 07:33N 32°21' W 090°58'4 4.1
2016-Feb-06 06:33N 32°19' W 090°54'2 1.7
2016-Feb-06 05:33N 32°18' W 090°56'5 4.5
2016-Feb-06 04:33N 32°14' W 090°59'5 5.1
2016-Feb-06 03:33N 32°09' W 090°60'5 4.4
2016-Feb-06 02:22N 32°08' W 091°06'3 3.0
2016-Feb-06 01:32N 32°06' W 091°05'0 0.2
2016-Feb-06 00:33N 32°05' W 091°05'2 1.0
2016-Feb-05 22:26N 32°04' W 091°04'8 4.5
2016-Feb-05 20:33N 31°58' W 091°11'  
Track history (hours):
 
Tides and Currents Weather Stations Pressure Air Temp Water Temp Dewpoint Dewpoint Depression Visibility Wind Speed Wind Dir Waves Ship Positions

John R Operle

Owner: INGRAM BARGE COMPANY, Nashville, TN. More information available from US FCC via Universal Licensing System and Coast Guard Vessel Documentation Center.

Last reported at 2016-Feb-14 04:26 UTC. Time now 2016-Feb-14 21:02 UTC.
Position N 32°05' W 091°04'.

Length 36 m; draft 3.6 m.

Type: Ship (hazmat cat B). MMSI: 366961510.

Date/timePositionNaut miles runAvg speedWind from/ knotsBaromVisibWave heightAir tempDewpointWater temp
2016-Feb-14 04:26N 32°05' W 091°04'4 4.3
2016-Feb-14 03:33N 32°07' W 091°01'9 9.2
2016-Feb-14 02:33N 32°16' W 090°58'5 5.0
2016-Feb-14 01:33N 32°21' W 090°57'0 0.1
2016-Feb-14 00:33N 32°21' W 090°57'5 4.8
2016-Feb-13 23:33N 32°25' W 090°60'9 7.7
2016-Feb-13 22:26N 32°32' W 091°06'  
2016-Feb-06 14:33N 32°45' W 091°09'5 4.7
2016-Feb-06 13:28N 32°43' W 091°03'4 4.9
2016-Feb-06 12:33N 32°40' W 091°07'4 4.2
2016-Feb-06 11:33N 32°36' W 091°08'5 4.5
2016-Feb-06 10:23N 32°31' W 091°06'4 4.8
2016-Feb-06 09:33N 32°27' W 091°05'5 5.0
2016-Feb-06 08:33N 32°25' W 090°60'4 4.1
2016-Feb-06 07:33N 32°21' W 090°58'4 4.1
2016-Feb-06 06:33N 32°19' W 090°54'2 1.7
2016-Feb-06 05:33N 32°18' W 090°56'5 4.5
2016-Feb-06 04:33N 32°14' W 090°59'5 5.1
2016-Feb-06 03:33N 32°09' W 090°60'5 4.4
2016-Feb-06 02:22N 32°08' W 091°06'3 3.0
2016-Feb-06 01:32N 32°06' W 091°05'0 0.2
2016-Feb-06 00:33N 32°05' W 091°05'2 1.0
2016-Feb-05 22:26N 32°04' W 091°04'8 4.5
2016-Feb-05 20:33N 31°58' W 091°11'  

Dump ship's entire track history